createdAt,value
2018-04-29T00:00:12.500Z,25.50
2018-04-29T00:02:40.673Z,24.60
2018-04-29T00:05:08.139Z,23.90
2018-04-29T00:07:35.547Z,25.70
2018-04-29T00:10:02.966Z,26.50
2018-04-29T00:12:31.180Z,31.17
2018-04-29T00:14:58.649Z,26.80
2018-04-29T00:17:26.073Z,26.33
2018-04-29T00:19:53.505Z,28.93
2018-04-29T00:22:20.924Z,29.30
2018-04-29T00:24:50.029Z,30.73
2018-04-29T00:27:18.264Z,24.33
2018-04-29T00:29:45.679Z,40.53
2018-04-29T00:32:13.113Z,29.47
2018-04-29T00:34:40.542Z,26.20
2018-04-29T00:37:08.019Z,28.73
2018-04-29T00:39:35.495Z,22.57
2018-04-29T00:42:02.904Z,27.53
2018-04-29T00:44:30.330Z,39.33
2018-04-29T00:46:57.740Z,32.20
2018-04-29T00:49:25.166Z,24.37
2018-04-29T00:52:04.580Z,22.83
2018-04-29T00:54:31.991Z,30.53
2018-04-29T00:56:59.433Z,22.73
2018-04-29T00:59:27.614Z,23.93
2018-04-29T01:01:55.813Z,27.00
2018-04-29T01:04:24.000Z,23.43
2018-04-29T01:06:51.400Z,24.60
2018-04-29T01:09:18.827Z,27.77
2018-04-29T01:11:46.248Z,26.00
2018-04-29T01:14:13.789Z,27.60
2018-04-29T01:16:41.251Z,25.67
2018-04-29T01:19:09.446Z,26.47
2018-04-29T01:21:36.892Z,23.70
2018-04-29T01:24:04.481Z,24.57
2018-04-29T01:26:31.901Z,29.13
2018-04-29T01:28:59.319Z,25.40
2018-04-29T01:31:26.733Z,31.03
2018-04-29T01:33:54.927Z,31.60
2018-04-29T01:36:23.108Z,28.23
2018-04-29T01:38:52.036Z,26.02
2018-04-29T01:41:21.146Z,24.00
2018-04-29T01:43:48.601Z,27.00
2018-04-29T01:46:16.776Z,31.63
2018-04-29T01:48:44.962Z,28.63
2018-04-29T01:51:12.392Z,32.53
2018-04-29T01:53:39.816Z,30.13
2018-04-29T01:56:08.036Z,31.20
2018-04-29T01:58:35.552Z,30.63
2018-04-29T02:01:03.067Z,29.40
2018-04-29T02:03:30.483Z,26.87
2018-04-29T02:05:58.026Z,32.27
2018-04-29T02:08:25.443Z,30.33
2018-04-29T02:10:53.633Z,37.10
2018-04-29T02:13:22.748Z,31.73
2018-04-29T02:15:50.335Z,29.33
2018-04-29T02:18:18.816Z,33.10
2018-04-29T02:20:46.244Z,33.13
2018-04-29T02:23:13.768Z,32.63
2018-04-29T02:25:41.205Z,39.70
2018-04-29T02:28:08.636Z,31.43
2018-04-29T02:30:36.069Z,46.10
2018-04-29T02:33:04.238Z,39.23
2018-04-29T02:35:32.424Z,33.90
2018-04-29T02:38:00.639Z,40.83
2018-04-29T02:40:28.800Z,37.05
2018-04-29T02:42:57.016Z,37.00
2018-04-29T02:45:24.448Z,37.67
2018-04-29T02:47:53.445Z,41.28
2018-04-29T02:50:21.672Z,35.67
2018-04-29T02:52:49.145Z,39.70
2018-04-29T02:55:16.575Z,40.50
2018-04-29T02:57:43.985Z,37.40
2018-04-29T03:00:11.424Z,43.80
2018-04-29T03:02:39.621Z,45.30
2018-04-29T03:05:07.071Z,38.00
2018-04-29T03:07:35.294Z,42.10
2018-04-29T03:10:02.751Z,35.13
2018-04-29T03:12:30.173Z,33.47
2018-04-29T03:14:57.796Z,36.17
2018-04-29T03:17:25.237Z,35.57
2018-04-29T03:19:53.349Z,33.57
2018-04-29T03:22:20.769Z,34.23
2018-04-29T03:24:48.184Z,30.93
2018-04-29T03:27:15.621Z,37.83
2018-04-29T03:29:43.800Z,34.20
2018-04-29T03:32:11.225Z,35.33
2018-04-29T03:34:38.654Z,29.60
2018-04-29T03:37:06.833Z,32.80
2018-04-29T03:39:35.055Z,42.80
2018-04-29T03:42:02.524Z,31.93
2018-04-29T03:44:29.980Z,39.10
2018-04-29T03:46:57.401Z,40.60
2018-04-29T03:49:24.822Z,35.50
2018-04-29T03:51:52.241Z,30.80
2018-04-29T03:54:19.664Z,34.10
2018-04-29T03:56:47.147Z,30.87
2018-04-29T03:59:27.136Z,32.60
2018-04-29T04:02:06.491Z,36.33
2018-04-29T04:04:34.031Z,32.47
2018-04-29T04:07:01.474Z,29.67
2018-04-29T04:09:28.908Z,32.33
2018-04-29T04:11:56.427Z,35.43
2018-04-29T04:14:25.311Z,34.10
2018-04-29T04:16:54.402Z,32.40
2018-04-29T04:19:22.589Z,31.70
2018-04-29T04:21:50.802Z,30.07
2018-04-29T04:24:18.221Z,28.10
2018-04-29T04:26:45.760Z,36.50
2018-04-29T04:29:13.200Z,33.60
2018-04-29T04:31:41.389Z,34.63
2018-04-29T04:34:08.922Z,28.90
2018-04-29T04:36:36.300Z,30.63
2018-04-29T04:39:03.717Z,32.77
2018-04-29T04:41:31.144Z,30.00
2018-04-29T04:43:59.341Z,29.57
2018-04-29T04:46:27.532Z,29.63
2018-04-29T04:48:55.174Z,28.77
2018-04-29T04:51:22.578Z,35.30
2018-04-29T04:53:50.002Z,30.77
2018-04-29T04:56:17.417Z,29.20
2018-04-29T04:58:44.860Z,30.80
2018-04-29T05:01:13.039Z,25.87
2018-04-29T05:03:41.255Z,27.70
2018-04-29T05:06:08.676Z,30.30
2018-04-29T05:08:36.103Z,26.70
2018-04-29T05:11:03.521Z,30.87
2018-04-29T05:13:32.436Z,29.97
2018-04-29T05:16:00.651Z,29.07
2018-04-29T05:18:28.074Z,27.30
2018-04-29T05:20:56.488Z,26.25
2018-04-29T05:23:25.631Z,27.80
2018-04-29T05:25:53.040Z,29.73
2018-04-29T05:28:20.462Z,27.17
2018-04-29T05:30:47.892Z,27.63
2018-04-29T05:33:15.393Z,26.70
2018-04-29T05:35:42.842Z,25.47
2018-04-29T12:15:56.696Z,20.20
2018-04-29T12:18:24.889Z,21.63
2018-04-29T12:20:53.166Z,15.60
2018-04-29T12:23:20.577Z,14.87
2018-04-29T12:25:47.980Z,23.83
2018-04-29T12:28:15.434Z,23.63
2018-04-29T12:30:42.848Z,15.60
2018-04-29T12:33:11.028Z,23.43
2018-04-29T12:35:39.208Z,26.50
2018-04-29T12:38:07.388Z,21.57
2018-04-29T12:40:34.928Z,13.83
2018-04-29T12:43:03.656Z,13.50
2018-04-29T12:45:31.281Z,12.23
2018-04-29T12:47:59.448Z,13.87
2018-04-29T12:50:26.872Z,13.90
2018-04-29T12:52:55.812Z,15.90
2018-04-29T12:55:24.016Z,15.13
2018-04-29T12:57:51.446Z,12.83
2018-04-29T13:00:18.850Z,18.20
2018-04-29T13:02:46.267Z,13.07
2018-04-29T13:05:13.672Z,13.10
2018-04-29T13:07:41.864Z,11.60
2018-04-29T13:10:09.264Z,12.33
2018-04-29T13:12:36.704Z,17.57
2018-04-29T13:15:04.116Z,18.60
2018-04-29T13:17:31.532Z,19.63
2018-04-29T13:19:58.943Z,11.03
2018-04-29T13:22:26.405Z,19.97
2018-04-29T13:24:53.892Z,21.83
2018-04-29T13:27:21.345Z,12.33
2018-04-29T13:29:48.789Z,18.50
2018-04-29T13:32:16.257Z,11.80
2018-04-29T13:34:44.439Z,19.03
2018-04-29T13:37:11.860Z,12.83
2018-04-29T13:39:39.384Z,11.53
2018-04-29T13:42:06.871Z,15.37
2018-04-29T13:44:34.240Z,16.37
2018-04-29T13:47:01.650Z,16.73
2018-04-29T13:49:29.130Z,11.80
2018-04-29T13:51:57.314Z,9.10
2018-04-29T13:54:25.503Z,13.60
2018-04-29T13:56:53.715Z,10.27
2018-04-29T13:59:21.869Z,7.50
2018-04-29T14:01:50.083Z,12.43
2018-04-29T14:04:18.232Z,14.03
2018-04-29T14:06:45.640Z,9.23
2018-04-29T14:09:13.112Z,8.63
2018-04-29T14:11:40.524Z,14.90
2018-04-29T14:14:07.945Z,26.73
2018-04-29T14:16:35.418Z,55.67
2018-04-29T14:19:02.832Z,15.20
2018-04-29T14:21:31.892Z,9.70
2018-04-29T14:23:59.295Z,7.97
2018-04-29T14:26:26.704Z,17.77
2018-04-29T14:28:54.113Z,15.93
2018-04-29T14:31:21.616Z,23.33
2018-04-29T14:33:49.027Z,12.13
2018-04-29T14:36:17.206Z,13.27
2018-04-29T14:38:44.631Z,11.10
2018-04-29T14:41:12.036Z,24.63
2018-04-29T14:43:39.468Z,19.33
2018-04-29T14:46:06.875Z,13.23
2018-04-29T14:48:35.245Z,18.83
2018-04-29T14:51:03.432Z,14.30
2018-04-29T14:53:31.624Z,13.20
2018-04-29T14:55:59.907Z,15.80
2018-04-29T14:58:27.241Z,16.60
2018-04-29T15:00:54.645Z,14.03
2018-04-29T15:03:22.832Z,13.23
2018-04-29T15:05:51.037Z,13.70
2018-04-29T15:08:18.460Z,13.80
2018-04-29T15:10:45.872Z,13.87
2018-04-29T15:13:13.288Z,16.90
2018-04-29T15:15:40.754Z,26.13
2018-04-29T15:18:08.151Z,14.17
2018-04-29T15:20:36.075Z,11.03
2018-04-29T15:23:04.244Z,18.87
2018-04-29T15:25:32.417Z,16.27
2018-04-29T15:28:00.734Z,17.10
2018-04-29T15:30:28.917Z,12.20
2018-04-29T15:32:56.381Z,17.03
2018-04-29T15:35:23.792Z,19.60
2018-04-29T15:37:51.208Z,19.00
2018-04-29T15:40:18.699Z,67.67
2018-04-29T15:42:46.906Z,19.70
2018-04-29T15:45:14.308Z,18.17
2018-04-29T15:47:42.485Z,14.27
2018-04-29T15:50:09.908Z,12.10
2018-04-29T15:52:37.373Z,12.67
2018-04-29T15:55:04.789Z,19.33
2018-04-29T15:57:32.229Z,12.20
2018-04-29T15:59:59.620Z,14.50
2018-04-29T16:02:28.138Z,15.97
2018-04-29T16:04:56.460Z,14.00
2018-04-29T16:07:23.877Z,14.63
2018-04-29T16:09:51.289Z,16.20
2018-04-29T16:12:18.700Z,21.27
2018-04-29T16:14:46.190Z,19.00
2018-04-29T16:17:14.292Z,14.80
2018-04-29T16:19:42.468Z,23.03
2018-04-29T16:22:10.646Z,17.37
2018-04-29T16:24:38.840Z,17.07
2018-04-29T16:27:07.945Z,16.03
2018-04-29T16:29:35.364Z,16.70
2018-04-29T16:32:04.340Z,22.20
2018-04-29T16:34:31.768Z,17.27
2018-04-29T16:36:59.196Z,18.33
2018-04-29T16:39:26.607Z,19.80
2018-04-29T16:41:54.014Z,17.80
2018-04-29T16:44:21.463Z,20.57
2018-04-29T16:46:50.364Z,18.07
2018-04-29T16:49:18.557Z,17.77
2018-04-29T16:51:46.762Z,16.50
2018-04-29T16:54:14.939Z,14.93
2018-04-29T16:56:42.416Z,22.37
2018-04-29T16:59:09.879Z,11.50
2018-04-29T17:01:38.560Z,12.05
2018-04-29T17:04:06.004Z,12.70
2018-04-29T17:06:33.416Z,19.03
2018-04-29T17:09:00.828Z,24.87
2018-04-29T17:11:28.258Z,14.40
2018-04-29T17:13:55.837Z,13.90
2018-04-29T17:16:23.991Z,13.33
2018-04-29T17:18:52.174Z,13.93
2018-04-29T17:21:20.357Z,17.80
2018-04-29T17:23:48.572Z,15.97
2018-04-29T17:26:15.989Z,15.80
2018-04-29T17:28:43.550Z,13.35
2018-04-29T17:31:10.983Z,13.10
2018-04-29T17:33:38.443Z,14.37
2018-04-29T17:36:05.843Z,12.67
2018-04-29T17:38:33.272Z,20.27
2018-04-29T17:41:01.473Z,17.07
2018-04-29T17:43:28.904Z,13.23
2018-04-29T17:45:56.324Z,18.63
2018-04-29T17:48:23.780Z,17.80
2018-04-29T17:50:51.193Z,14.93
2018-04-29T17:53:18.729Z,18.17
2018-04-29T17:55:46.135Z,21.10
2018-04-29T17:58:13.554Z,15.47
2018-04-29T18:00:41.031Z,18.43
2018-04-29T18:03:09.812Z,20.02
2018-04-29T18:05:38.908Z,17.60
2018-04-29T18:08:07.143Z,12.60
2018-04-29T18:10:36.464Z,15.43
2018-04-29T18:13:03.895Z,14.37
2018-04-29T18:15:31.304Z,10.90
2018-04-29T18:17:58.737Z,15.03
2018-04-29T18:20:27.069Z,16.93
2018-04-29T18:22:54.514Z,12.43
2018-04-29T18:25:21.909Z,13.53
2018-04-29T18:27:49.328Z,17.50
2018-04-29T18:30:16.735Z,13.55
2018-04-29T18:32:44.164Z,10.23
2018-04-29T18:35:11.582Z,13.73
2018-04-29T18:37:39.770Z,14.23
2018-04-29T18:40:07.180Z,12.90
2018-04-29T18:42:34.878Z,11.50
2018-04-29T18:45:02.334Z,15.67
2018-04-29T18:47:29.761Z,17.77
2018-04-29T18:49:57.206Z,12.93
2018-04-29T18:52:24.650Z,10.50
2018-04-29T18:54:52.050Z,16.67
2018-04-29T18:57:19.620Z,12.88
2018-04-29T18:59:47.045Z,18.13
2018-04-29T19:02:14.474Z,13.27
2018-04-29T19:04:41.872Z,11.33
2018-04-29T19:07:10.224Z,15.18
2018-04-29T19:09:37.643Z,20.50
2018-04-29T19:12:05.116Z,15.30
2018-04-29T19:14:32.534Z,11.97
2018-04-29T19:16:59.948Z,17.40
2018-04-29T19:19:27.367Z,10.40
2018-04-29T19:21:54.881Z,11.90
2018-04-29T19:24:22.320Z,14.63
2018-04-29T19:26:50.503Z,12.40
2018-04-29T19:29:17.928Z,12.13
2018-04-29T19:31:45.349Z,17.00
2018-04-29T19:34:13.602Z,19.60
2018-04-29T19:36:41.031Z,11.97
2018-04-29T19:39:08.470Z,12.00
2018-04-29T19:41:35.946Z,17.93
2018-04-29T19:44:04.138Z,17.50
2018-04-29T19:46:32.358Z,13.77
2018-04-29T19:48:59.821Z,15.00
2018-04-29T19:51:27.274Z,13.90
2018-04-29T19:53:54.683Z,11.17
2018-04-29T19:56:22.102Z,12.80
2018-04-29T19:58:50.338Z,18.37
2018-04-29T20:01:17.748Z,14.53
2018-04-29T20:03:45.931Z,11.57
2018-04-29T20:06:14.137Z,12.93
2018-04-29T20:08:41.548Z,10.53
2018-04-29T20:11:08.968Z,11.63
2018-04-29T20:13:37.203Z,10.70
2018-04-29T20:16:04.645Z,12.60
2018-04-29T20:18:32.146Z,17.00
2018-04-29T20:20:59.536Z,10.20
2018-04-29T20:23:27.714Z,13.80
2018-04-29T20:25:55.362Z,14.00
2018-04-29T20:28:22.764Z,20.23
2018-04-29T20:30:50.948Z,16.20
2018-04-29T20:33:19.295Z,11.47
2018-04-29T20:35:46.700Z,15.83
2018-04-29T20:38:14.145Z,12.93
2018-04-29T20:40:42.112Z,15.83
2018-04-29T20:43:09.528Z,13.00
2018-04-29T20:45:37.768Z,9.40
2018-04-29T20:48:05.186Z,13.20
2018-04-29T20:50:33.369Z,11.50
2018-04-29T20:53:01.548Z,14.47
2018-04-29T20:55:29.735Z,10.10
2018-04-29T20:57:57.908Z,12.07
2018-04-29T21:00:25.326Z,17.30
2018-04-29T21:02:52.885Z,13.62
2018-04-29T21:05:20.296Z,13.27
2018-04-29T21:07:47.720Z,12.23
2018-04-29T21:10:15.912Z,14.57
2018-04-29T21:12:43.327Z,14.33
2018-04-29T21:15:10.864Z,15.00
2018-04-29T21:17:38.337Z,15.53
2018-04-29T21:20:05.756Z,11.40
2018-04-29T21:22:33.929Z,9.60
2018-04-29T21:25:01.445Z,16.83
2018-04-29T21:27:28.862Z,15.33
2018-04-29T21:29:56.273Z,17.43
2018-04-29T21:32:23.749Z,12.90
2018-04-29T21:34:51.212Z,12.30
2018-04-29T21:37:18.647Z,20.83
2018-04-29T21:39:46.068Z,15.30
2018-04-29T21:42:15.548Z,14.90
2018-04-29T21:44:44.369Z,15.57
2018-04-29T21:47:11.797Z,14.20
2018-04-29T21:49:39.211Z,13.60
2018-04-29T21:52:06.645Z,15.13
2018-04-29T21:54:34.070Z,14.47
2018-04-29T21:57:01.492Z,15.47
2018-04-29T21:59:29.672Z,17.60
2018-04-29T22:01:57.867Z,13.97
2018-04-29T22:04:26.042Z,17.17
2018-04-29T22:06:53.448Z,17.63
2018-04-29T22:09:20.869Z,13.13
2018-04-29T22:11:48.304Z,11.83
2018-04-29T22:14:15.707Z,13.63
2018-04-29T22:16:45.052Z,15.80
2018-04-29T22:19:12.467Z,16.57
2018-04-29T22:21:40.056Z,19.10
2018-04-29T22:24:07.433Z,14.03
2018-04-29T22:26:35.615Z,15.57
2018-04-29T22:29:03.013Z,12.77
2018-04-29T22:31:30.481Z,11.47
2018-04-29T22:33:57.981Z,23.83
2018-04-29T22:36:26.477Z,12.93
2018-04-29T22:38:53.864Z,14.03
2018-04-29T22:41:21.301Z,20.50
2018-04-29T22:43:48.715Z,13.20
2018-04-29T22:46:16.128Z,16.87
2018-04-29T22:48:43.544Z,17.93
2018-04-29T22:51:10.964Z,18.13
2018-04-29T22:53:38.392Z,16.33
2018-04-29T22:56:06.715Z,21.47
2018-04-29T22:58:34.918Z,16.70
2018-04-29T23:01:02.320Z,16.23
2018-04-29T23:03:29.916Z,13.07
2018-04-29T23:05:57.261Z,16.97
2018-04-29T23:08:24.678Z,16.83
2018-04-29T23:10:52.097Z,15.03
2018-04-29T23:13:19.518Z,12.13
2018-04-29T23:15:46.943Z,14.53
2018-04-29T23:18:16.784Z,16.80
2018-04-29T23:20:45.888Z,15.97
2018-04-29T23:23:14.094Z,20.97
2018-04-29T23:25:41.512Z,26.30
2018-04-29T23:28:08.932Z,14.40
2018-04-29T23:30:36.352Z,13.77
2018-04-29T23:33:03.772Z,20.00
2018-04-29T23:35:31.242Z,14.50
2018-04-29T23:37:58.667Z,14.00
2018-04-29T23:40:26.080Z,18.67
2018-04-29T23:42:53.493Z,13.77
2018-04-29T23:45:20.912Z,16.60
2018-04-29T23:47:48.329Z,14.17
2018-04-29T23:50:16.839Z,16.67
2018-04-29T23:52:44.261Z,14.90
2018-04-29T23:55:11.676Z,13.57
2018-04-29T23:57:39.868Z,20.37
